sensor_id;sensor_type;location;lat;lon;timestamp;pressure;altitude;pressure_sealevel;temperature;humidity
52625;BME280;38519;52.540;13.410;2023-01-26T00:01:10;101678.91;;;-0.36;100.00
52625;BME280;38519;52.540;13.410;2023-01-26T00:03:35;101679.34;;;-0.46;100.00
52625;BME280;38519;52.540;13.410;2023-01-26T00:06:04;101683.75;;;-0.45;100.00
52625;BME280;38519;52.540;13.410;2023-01-26T00:08:30;101676.84;;;-0.39;100.00
52625;BME280;38519;52.540;13.410;2023-01-26T00:10:55;101676.34;;;-0.36;100.00
52625;BME280;38519;52.540;13.410;2023-01-26T00:13:21;101670.69;;;-0.33;100.00
52625;BME280;38519;52.540;13.410;2023-01-26T00:15:47;101672.84;;;-0.37;100.00
52625;BME280;38519;52.540;13.410;2023-01-26T00:18:12;101674.81;;;-0.41;100.00
52625;BME280;38519;52.540;13.410;2023-01-26T00:20:38;101662.09;;;-0.47;100.00
52625;BME280;38519;52.540;13.410;2023-01-26T00:23:03;101656.84;;;-0.41;100.00
52625;BME280;38519;52.540;13.410;2023-01-26T00:25:28;101654.78;;;-0.44;100.00
52625;BME280;38519;52.540;13.410;2023-01-26T00:27:53;101652.47;;;-0.55;100.00
52625;BME280;38519;52.540;13.410;2023-01-26T00:30:20;101648.16;;;-0.49;100.00
52625;BME280;38519;52.540;13.410;2023-01-26T00:32:45;101647.03;;;-0.51;100.00
52625;BME280;38519;52.540;13.410;2023-01-26T00:35:12;101638.50;;;-0.44;100.00
52625;BME280;38519;52.540;13.410;2023-01-26T00:37:39;101640.19;;;-0.58;100.00
52625;BME280;38519;52.540;13.410;2023-01-26T00:40:05;101635.66;;;-0.53;100.00
52625;BME280;38519;52.540;13.410;2023-01-26T00:42:30;101635.00;;;-0.45;100.00
52625;BME280;38519;52.540;13.410;2023-01-26T00:44:55;101628.03;;;-0.46;100.00
52625;BME280;38519;52.540;13.410;2023-01-26T00:47:21;101631.47;;;-0.32;100.00
52625;BME280;38519;52.540;13.410;2023-01-26T00:49:46;101638.69;;;-0.43;100.00
52625;BME280;38519;52.540;13.410;2023-01-26T00:52:11;101626.94;;;-0.28;100.00
52625;BME280;38519;52.540;13.410;2023-01-26T00:54:37;101635.47;;;-0.34;100.00
52625;BME280;38519;52.540;13.410;2023-01-26T00:57:02;101625.22;;;-0.34;100.00
52625;BME280;38519;52.540;13.410;2023-01-26T00:59:28;101628.81;;;-0.40;100.00
52625;BME280;38519;52.540;13.410;2023-01-26T01:01:56;101626.31;;;-0.52;100.00
52625;BME280;38519;52.540;13.410;2023-01-26T01:04:22;101623.75;;;-0.32;100.00
52625;BME280;38519;52.540;13.410;2023-01-26T01:06:47;101626.22;;;-0.27;100.00
52625;BME280;38519;52.540;13.410;2023-01-26T01:09:13;101628.94;;;-0.45;100.00
52625;BME280;38519;52.540;13.410;2023-01-26T01:11:38;101625.97;;;-0.48;100.00
52625;BME280;38519;52.540;13.410;2023-01-26T01:14:03;101613.75;;;-0.44;100.00
52625;BME280;38519;52.540;13.410;2023-01-26T01:16:29;101617.41;;;-0.29;100.00
52625;BME280;38519;52.540;13.410;2023-01-26T01:18:54;101615.81;;;-0.41;100.00
52625;BME280;38519;52.540;13.410;2023-01-26T01:21:20;101609.84;;;-0.47;100.00
52625;BME280;38519;52.540;13.410;2023-01-26T01:23:47;101611.03;;;-0.25;100.00
52625;BME280;38519;52.540;13.410;2023-01-26T01:26:13;101603.31;;;-0.25;100.00
52625;BME280;38519;52.540;13.410;2023-01-26T01:28:39;101602.13;;;-0.34;100.00
52625;BME280;38519;52.540;13.410;2023-01-26T01:31:05;101598.19;;;-0.25;100.00
52625;BME280;38519;52.540;13.410;2023-01-26T01:33:30;101597.28;;;-0.39;100.00
52625;BME280;38519;52.540;13.410;2023-01-26T01:36:00;101607.66;;;-0.31;100.00
52625;BME280;38519;52.540;13.410;2023-01-26T01:38:25;101597.38;;;-0.31;100.00
52625;BME280;38519;52.540;13.410;2023-01-26T01:40:51;101602.72;;;-0.30;100.00
52625;BME280;38519;52.540;13.410;2023-01-26T01:43:16;101593.97;;;-0.25;100.00
52625;BME280;38519;52.540;13.410;2023-01-26T01:45:45;101600.47;;;-0.34;100.00
52625;BME280;38519;52.540;13.410;2023-01-26T01:48:57;101601.59;;;-0.32;100.00
52625;BME280;38519;52.540;13.410;2023-01-26T01:50:57;101593.50;;;-0.35;100.00
52625;BME280;38519;52.540;13.410;2023-01-26T01:53:26;101589.13;;;-0.49;100.00
52625;BME280;38519;52.540;13.410;2023-01-26T01:55:54;101591.69;;;-0.49;100.00
52625;BME280;38519;52.540;13.410;2023-01-26T01:58:20;101582.28;;;-0.35;100.00
52625;BME280;38519;52.540;13.410;2023-01-26T02:00:46;101581.47;;;-0.29;100.00
52625;BME280;38519;52.540;13.410;2023-01-26T02:03:11;101574.13;;;-0.46;100.00
52625;BME280;38519;52.540;13.410;2023-01-26T02:08:08;101577.16;;;-0.35;100.00
52625;BME280;38519;52.540;13.410;2023-01-26T02:10:35;101574.28;;;-0.31;100.00
52625;BME280;38519;52.540;13.410;2023-01-26T02:13:00;101566.28;;;-0.27;100.00
52625;BME280;38519;52.540;13.410;2023-01-26T02:15:26;101563.47;;;-0.49;100.00
52625;BME280;38519;52.540;13.410;2023-01-26T02:17:52;101567.09;;;-0.54;100.00
52625;BME280;38519;52.540;13.410;2023-01-26T02:25:24;101558.03;;;-0.25;100.00
52625;BME280;38519;52.540;13.410;2023-01-26T02:27:51;101550.34;;;-0.25;100.00
52625;BME280;38519;52.540;13.410;2023-01-26T02:30:17;101552.78;;;-0.19;100.00
52625;BME280;38519;52.540;13.410;2023-01-26T02:32:43;101539.19;;;-0.18;100.00
52625;BME280;38519;52.540;13.410;2023-01-26T02:35:09;101536.03;;;-0.23;100.00
52625;BME280;38519;52.540;13.410;2023-01-26T02:37:34;101534.69;;;-0.33;100.00
52625;BME280;38519;52.540;13.410;2023-01-26T02:40:01;101520.31;;;-0.39;100.00
52625;BME280;38519;52.540;13.410;2023-01-26T02:42:28;101526.50;;;-0.44;100.00
52625;BME280;38519;52.540;13.410;2023-01-26T02:45:03;101523.53;;;-0.47;100.00
52625;BME280;38519;52.540;13.410;2023-01-26T02:47:28;101523.53;;;-0.47;100.00
52625;BME280;38519;52.540;13.410;2023-01-26T02:49:53;101517.09;;;-0.50;100.00
52625;BME280;38519;52.540;13.410;2023-01-26T02:52:20;101521.97;;;-0.59;100.00
52625;BME280;38519;52.540;13.410;2023-01-26T02:54:45;101519.47;;;-0.52;100.00
52625;BME280;38519;52.540;13.410;2023-01-26T02:57:29;101511.72;;;-0.59;100.00
52625;BME280;38519;52.540;13.410;2023-01-26T02:59:54;101520.91;;;-0.54;100.00
52625;BME280;38519;52.540;13.410;2023-01-26T03:02:21;101516.66;;;-0.61;100.00
52625;BME280;38519;52.540;13.410;2023-01-26T03:04:46;101521.47;;;-0.69;100.00
52625;BME280;38519;52.540;13.410;2023-01-26T03:07:11;101522.81;;;-0.66;100.00
52625;BME280;38519;52.540;13.410;2023-01-26T03:09:37;101520.13;;;-0.60;100.00
52625;BME280;38519;52.540;13.410;2023-01-26T03:12:02;101522.44;;;-0.69;100.00
52625;BME280;38519;52.540;13.410;2023-01-26T03:14:27;101524.84;;;-0.63;100.00
52625;BME280;38519;52.540;13.410;2023-01-26T03:16:53;101523.25;;;-0.76;100.00
52625;BME280;38519;52.540;13.410;2023-01-26T03:19:19;101519.31;;;-0.66;100.00
52625;BME280;38519;52.540;13.410;2023-01-26T03:22:03;101516.09;;;-0.78;100.00
52625;BME280;38519;52.540;13.410;2023-01-26T03:24:47;101513.38;;;-0.73;100.00
52625;BME280;38519;52.540;13.410;2023-01-26T03:27:37;101514.59;;;-0.63;100.00
52625;BME280;38519;52.540;13.410;2023-01-26T03:30:03;101520.31;;;-0.59;100.00
52625;BME280;38519;52.540;13.410;2023-01-26T03:32:28;101513.13;;;-0.61;100.00
52625;BME280;38519;52.540;13.410;2023-01-26T03:34:53;101507.94;;;-0.48;100.00
52625;BME280;38519;52.540;13.410;2023-01-26T03:37:19;101501.50;;;-0.52;100.00
52625;BME280;38519;52.540;13.410;2023-01-26T03:39:48;101501.66;;;-0.58;100.00
52625;BME280;38519;52.540;13.410;2023-01-26T03:42:32;101507.50;;;-0.59;100.00
52625;BME280;38519;52.540;13.410;2023-01-26T03:45:16;101513.94;;;-0.55;100.00
52625;BME280;38519;52.540;13.410;2023-01-26T03:48:04;101511.16;;;-0.57;100.00
52625;BME280;38519;52.540;13.410;2023-01-26T03:50:48;101518.94;;;-0.49;100.00
52625;BME280;38519;52.540;13.410;2023-01-26T03:53:32;101518.41;;;-0.47;100.00
52625;BME280;38519;52.540;13.410;2023-01-26T03:56:16;101517.66;;;-0.53;100.00
52625;BME280;38519;52.540;13.410;2023-01-26T03:58:51;101518.94;;;-0.49;100.00
52625;BME280;38519;52.540;13.410;2023-01-26T04:01:16;101509.41;;;-0.50;100.00
52625;BME280;38519;52.540;13.410;2023-01-26T04:03:48;101514.03;;;-0.48;100.00
52625;BME280;38519;52.540;13.410;2023-01-26T04:06:33;101510.50;;;-0.48;100.00
52625;BME280;38519;52.540;13.410;2023-01-26T04:09:17;101511.38;;;-0.55;100.00
52625;BME280;38519;52.540;13.410;2023-01-26T04:11:43;101508.00;;;-0.61;100.00
52625;BME280;38519;52.540;13.410;2023-01-26T04:14:11;101510.38;;;-0.83;100.00
52625;BME280;38519;52.540;13.410;2023-01-26T04:16:56;101505.22;;;-0.83;100.00
52625;BME280;38519;52.540;13.410;2023-01-26T04:19:40;101495.84;;;-0.69;100.00
52625;BME280;38519;52.540;13.410;2023-01-26T04:22:24;101485.84;;;-0.81;100.00
52625;BME280;38519;52.540;13.410;2023-01-26T04:24:49;101485.19;;;-0.73;100.00
52625;BME280;38519;52.540;13.410;2023-01-26T04:27:14;101482.63;;;-0.73;100.00
52625;BME280;38519;52.540;13.410;2023-01-26T04:29:39;101481.25;;;-0.63;100.00
52625;BME280;38519;52.540;13.410;2023-01-26T04:32:05;101482.25;;;-0.56;100.00
52625;BME280;38519;52.540;13.410;2023-01-26T04:34:30;101486.25;;;-0.58;100.00
52625;BME280;38519;52.540;13.410;2023-01-26T04:36:55;101485.50;;;-0.57;100.00
52625;BME280;38519;52.540;13.410;2023-01-26T04:39:20;101486.06;;;-0.59;100.00
52625;BME280;38519;52.540;13.410;2023-01-26T04:41:45;101478.03;;;-0.55;100.00
52625;BME280;38519;52.540;13.410;2023-01-26T04:44:11;101479.16;;;-0.53;100.00
52625;BME280;38519;52.540;13.410;2023-01-26T04:46:36;101471.78;;;-0.57;100.00
52625;BME280;38519;52.540;13.410;2023-01-26T04:49:01;101479.59;;;-0.63;100.00
52625;BME280;38519;52.540;13.410;2023-01-26T04:51:27;101478.22;;;-0.53;100.00
52625;BME280;38519;52.540;13.410;2023-01-26T04:53:52;101481.84;;;-0.59;100.00
52625;BME280;38519;52.540;13.410;2023-01-26T04:56:19;101466.13;;;-0.54;100.00
52625;BME280;38519;52.540;13.410;2023-01-26T04:58:46;101470.00;;;-0.51;100.00
52625;BME280;38519;52.540;13.410;2023-01-26T05:01:11;101465.16;;;-0.62;100.00
52625;BME280;38519;52.540;13.410;2023-01-26T05:03:36;101465.66;;;-0.65;100.00
52625;BME280;38519;52.540;13.410;2023-01-26T05:06:01;101461.13;;;-0.60;100.00
52625;BME280;38519;52.540;13.410;2023-01-26T05:08:26;101463.22;;;-0.50;100.00
52625;BME280;38519;52.540;13.410;2023-01-26T05:10:52;101461.84;;;-0.61;100.00
52625;BME280;38519;52.540;13.410;2023-01-26T05:13:17;101452.38;;;-0.55;100.00
52625;BME280;38519;52.540;13.410;2023-01-26T05:15:42;101452.38;;;-0.55;100.00
52625;BME280;38519;52.540;13.410;2023-01-26T05:18:08;101457.09;;;-0.58;100.00
52625;BME280;38519;52.540;13.410;2023-01-26T05:20:33;101464.19;;;-0.63;100.00
52625;BME280;38519;52.540;13.410;2023-01-26T05:22:59;101458.56;;;-0.60;100.00
52625;BME280;38519;52.540;13.410;2023-01-26T05:25:24;101454.69;;;-0.64;100.00
52625;BME280;38519;52.540;13.410;2023-01-26T05:27:50;101458.31;;;-0.69;100.00
52625;BME280;38519;52.540;13.410;2023-01-26T05:30:17;101454.50;;;-0.65;100.00
52625;BME280;38519;52.540;13.410;2023-01-26T05:32:42;101460.41;;;-0.59;100.00
52625;BME280;38519;52.540;13.410;2023-01-26T05:35:07;101458.63;;;-0.73;100.00
52625;BME280;38519;52.540;13.410;2023-01-26T05:37:33;101458.34;;;-0.62;100.00
52625;BME280;38519;52.540;13.410;2023-01-26T05:39:58;101457.31;;;-0.57;100.00
52625;BME280;38519;52.540;13.410;2023-01-26T05:42:24;101460.25;;;-0.53;100.00
52625;BME280;38519;52.540;13.410;2023-01-26T05:44:49;101463.38;;;-0.56;100.00
52625;BME280;38519;52.540;13.410;2023-01-26T05:47:14;101465.84;;;-0.63;100.00
52625;BME280;38519;52.540;13.410;2023-01-26T05:49:40;101469.00;;;-0.59;100.00
52625;BME280;38519;52.540;13.410;2023-01-26T05:52:11;101470.66;;;-0.59;100.00
52625;BME280;38519;52.540;13.410;2023-01-26T05:54:37;101466.66;;;-0.57;100.00
52625;BME280;38519;52.540;13.410;2023-01-26T05:57:02;101471.47;;;-0.53;100.00
52625;BME280;38519;52.540;13.410;2023-01-26T05:59:28;101472.56;;;-0.51;100.00
52625;BME280;38519;52.540;13.410;2023-01-26T06:01:54;101471.69;;;-0.64;100.00
52625;BME280;38519;52.540;13.410;2023-01-26T06:04:19;101467.13;;;-0.67;100.00
52625;BME280;38519;52.540;13.410;2023-01-26T06:06:44;101468.78;;;-0.67;100.00
52625;BME280;38519;52.540;13.410;2023-01-26T06:09:10;101474.47;;;-0.63;100.00
52625;BME280;38519;52.540;13.410;2023-01-26T06:11:35;101469.06;;;-0.51;100.00
52625;BME280;38519;52.540;13.410;2023-01-26T06:14:00;101468.03;;;-0.66;100.00
52625;BME280;38519;52.540;13.410;2023-01-26T06:16:26;101474.03;;;-0.53;100.00
52625;BME280;38519;52.540;13.410;2023-01-26T06:18:51;101474.59;;;-0.48;100.00
52625;BME280;38519;52.540;13.410;2023-01-26T06:21:16;101475.81;;;-0.59;100.00
52625;BME280;38519;52.540;13.410;2023-01-26T06:23:41;101484.94;;;-0.41;100.00
52625;BME280;38519;52.540;13.410;2023-01-26T06:26:07;101484.16;;;-0.47;100.00
52625;BME280;38519;52.540;13.410;2023-01-26T06:28:32;101482.25;;;-0.56;100.00
52625;BME280;38519;52.540;13.410;2023-01-26T06:31:00;101477.31;;;-0.54;100.00
52625;BME280;38519;52.540;13.410;2023-01-26T06:33:26;101467.38;;;-0.58;100.00
52625;BME280;38519;52.540;13.410;2023-01-26T06:35:51;101466.66;;;-0.57;100.00
52625;BME280;38519;52.540;13.410;2023-01-26T06:38:18;101465.59;;;-0.72;100.00
52625;BME280;38519;52.540;13.410;2023-01-26T06:40:43;101469.00;;;-0.79;100.00
52625;BME280;38519;52.540;13.410;2023-01-26T06:43:09;101481.09;;;-0.78;100.00
52625;BME280;38519;52.540;13.410;2023-01-26T06:45:34;101474.53;;;-0.76;100.00
52625;BME280;38519;52.540;13.410;2023-01-26T06:47:59;101475.47;;;-0.75;100.00
52625;BME280;38519;52.540;13.410;2023-01-26T06:50:25;101482.22;;;-0.76;100.00
52625;BME280;38519;52.540;13.410;2023-01-26T06:52:55;101479.34;;;-0.71;100.00
52625;BME280;38519;52.540;13.410;2023-01-26T06:55:21;101491.06;;;-0.74;100.00
52625;BME280;38519;52.540;13.410;2023-01-26T06:57:47;101487.59;;;-0.87;100.00
52625;BME280;38519;52.540;13.410;2023-01-26T07:00:13;101479.09;;;-0.80;100.00
52625;BME280;38519;52.540;13.410;2023-01-26T07:02:38;101477.47;;;-0.73;100.00
52625;BME280;38519;52.540;13.410;2023-01-26T07:05:03;101476.97;;;-0.70;100.00
52625;BME280;38519;52.540;13.410;2023-01-26T07:07:29;101471.97;;;-0.76;100.00
52625;BME280;38519;52.540;13.410;2023-01-26T07:09:55;101473.22;;;-0.79;100.00
52625;BME280;38519;52.540;13.410;2023-01-26T07:12:20;101471.69;;;-0.84;100.00
52625;BME280;38519;52.540;13.410;2023-01-26T07:14:46;101481.66;;;-0.80;100.00
52625;BME280;38519;52.540;13.410;2023-01-26T07:17:11;101478.47;;;-0.85;100.00
52625;BME280;38519;52.540;13.410;2023-01-26T07:19:37;101482.41;;;-0.94;100.00
52625;BME280;38519;52.540;13.410;2023-01-26T07:22:02;101480.34;;;-0.97;100.00
52625;BME280;38519;52.540;13.410;2023-01-26T07:24:27;101478.31;;;-0.99;100.00
52625;BME280;38519;52.540;13.410;2023-01-26T07:26:54;101479.50;;;-0.90;100.00
52625;BME280;38519;52.540;13.410;2023-01-26T07:29:19;101480.03;;;-0.93;100.00
52625;BME280;38519;52.540;13.410;2023-01-26T07:31:45;101487.94;;;-0.91;100.00
52625;BME280;38519;52.540;13.410;2023-01-26T07:34:10;101485.16;;;-0.93;100.00
52625;BME280;38519;52.540;13.410;2023-01-26T07:36:35;101485.06;;;-1.00;100.00
52625;BME280;38519;52.540;13.410;2023-01-26T07:39:01;101483.25;;;-1.01;100.00
52625;BME280;38519;52.540;13.410;2023-01-26T07:41:26;101480.75;;;-0.94;100.00
52625;BME280;38519;52.540;13.410;2023-01-26T07:43:51;101483.00;;;-0.89;100.00
52625;BME280;38519;52.540;13.410;2023-01-26T07:46:16;101486.47;;;-0.89;100.00
52625;BME280;38519;52.540;13.410;2023-01-26T07:48:42;101480.56;;;-0.95;100.00
52625;BME280;38519;52.540;13.410;2023-01-26T07:51:07;101481.28;;;-0.96;100.00
52625;BME280;38519;52.540;13.410;2023-01-26T07:53:35;101483.28;;;-0.81;100.00
52625;BME280;38519;52.540;13.410;2023-01-26T07:56:07;101484.06;;;-0.75;100.00
52625;BME280;38519;52.540;13.410;2023-01-26T07:58:33;101491.31;;;-0.85;100.00
52625;BME280;38519;52.540;13.410;2023-01-26T08:01:03;101486.56;;;-0.82;100.00
52625;BME280;38519;52.540;13.410;2023-01-26T08:03:28;101488.00;;;-0.84;100.00
52625;BME280;38519;52.540;13.410;2023-01-26T08:05:53;101499.59;;;-0.80;100.00
52625;BME280;38519;52.540;13.410;2023-01-26T08:08:19;101494.63;;;-0.79;100.00
52625;BME280;38519;52.540;13.410;2023-01-26T08:10:44;101493.13;;;-0.84;100.00
52625;BME280;38519;52.540;13.410;2023-01-26T08:13:09;101501.22;;;-0.81;100.00
52625;BME280;38519;52.540;13.410;2023-01-26T08:15:34;101498.44;;;-0.82;100.00
52625;BME280;38519;52.540;13.410;2023-01-26T08:18:00;101497.78;;;-0.94;100.00
52625;BME280;38519;52.540;13.410;2023-01-26T08:20:27;101495.56;;;-1.11;100.00
52625;BME280;38519;52.540;13.410;2023-01-26T08:22:53;101496.19;;;-1.19;100.00
52625;BME280;38519;52.540;13.410;2023-01-26T08:25:18;101507.22;;;-1.33;100.00
52625;BME280;38519;52.540;13.410;2023-01-26T08:27:43;101499.88;;;-1.17;100.00
52625;BME280;38519;52.540;13.410;2023-01-26T08:30:09;101506.63;;;-1.05;100.00
52625;BME280;38519;52.540;13.410;2023-01-26T08:32:35;101511.47;;;-1.14;100.00
52625;BME280;38519;52.540;13.410;2023-01-26T08:35:00;101500.78;;;-1.04;100.00
52625;BME280;38519;52.540;13.410;2023-01-26T08:37:25;101500.50;;;-1.13;100.00
52625;BME280;38519;52.540;13.410;2023-01-26T08:39:52;101488.88;;;-1.03;100.00
52625;BME280;38519;52.540;13.410;2023-01-26T08:42:17;101495.59;;;-1.24;100.00
52625;BME280;38519;52.540;13.410;2023-01-26T08:44:42;101493.59;;;-1.06;100.00
52625;BME280;38519;52.540;13.410;2023-01-26T08:47:07;101489.59;;;-1.04;100.00
52625;BME280;38519;52.540;13.410;2023-01-26T08:49:33;101490.00;;;-1.01;100.00
52625;BME280;38519;52.540;13.410;2023-01-26T08:51:58;101493.59;;;-1.06;100.00
52625;BME280;38519;52.540;13.410;2023-01-26T08:54:23;101490.97;;;-1.14;100.00
52625;BME280;38519;52.540;13.410;2023-01-26T08:56:48;101497.94;;;-1.13;100.00
52625;BME280;38519;52.540;13.410;2023-01-26T08:59:14;101500.25;;;-1.01;100.00
52625;BME280;38519;52.540;13.410;2023-01-26T09:01:39;101505.59;;;-1.00;100.00
52625;BME280;38519;52.540;13.410;2023-01-26T09:04:04;101499.53;;;-1.00;100.00
52625;BME280;38519;52.540;13.410;2023-01-26T09:06:30;101505.06;;;-0.97;100.00
52625;BME280;38519;52.540;13.410;2023-01-26T09:08:57;101508.56;;;-0.97;100.00
52625;BME280;38519;52.540;13.410;2023-01-26T09:11:22;101507.16;;;-1.07;100.00
52625;BME280;38519;52.540;13.410;2023-01-26T09:13:51;101513.63;;;-1.17;100.00
52625;BME280;38519;52.540;13.410;2023-01-26T09:16:20;101517.53;;;-1.26;100.00
52625;BME280;38519;52.540;13.410;2023-01-26T09:18:48;101519.59;;;-1.23;100.00
52625;BME280;38519;52.540;13.410;2023-01-26T09:21:15;101517.94;;;-1.10;100.00
52625;BME280;38519;52.540;13.410;2023-01-26T09:23:40;101512.50;;;-1.06;100.00
52625;BME280;38519;52.540;13.410;2023-01-26T09:26:05;101524.47;;;-0.99;100.00
52625;BME280;38519;52.540;13.410;2023-01-26T09:28:31;101523.81;;;-0.91;100.00
52625;BME280;38519;52.540;13.410;2023-01-26T09:30:56;101524.34;;;-0.94;100.00
52625;BME280;38519;52.540;13.410;2023-01-26T09:33:21;101521.78;;;-0.94;100.00
52625;BME280;38519;52.540;13.410;2023-01-26T09:35:47;101510.66;;;-0.87;100.00
52625;BME280;38519;52.540;13.410;2023-01-26T09:38:13;101505.97;;;-0.97;100.00
52625;BME280;38519;52.540;13.410;2023-01-26T09:40:43;101508.44;;;-0.91;100.00
52625;BME280;38519;52.540;13.410;2023-01-26T09:43:16;101509.16;;;-0.92;100.00
52625;BME280;38519;52.540;13.410;2023-01-26T09:50:53;101504.88;;;-0.99;100.00
52625;BME280;38519;52.540;13.410;2023-01-26T09:53:30;101509.34;;;-0.90;100.00
52625;BME280;38519;52.540;13.410;2023-01-26T09:56:01;101511.41;;;-0.88;100.00
52625;BME280;38519;52.540;13.410;2023-01-26T09:58:39;101518.50;;;-0.93;100.00
52625;BME280;38519;52.540;13.410;2023-01-26T10:01:05;101517.97;;;-0.90;100.00
52625;BME280;38519;52.540;13.410;2023-01-26T10:08:42;101506.84;;;-1.03;100.00
52625;BME280;38519;52.540;13.410;2023-01-26T10:11:15;101504.66;;;-1.00;100.00
52625;BME280;38519;52.540;13.410;2023-01-26T10:13:42;101494.41;;;-1.00;100.00
52625;BME280;38519;52.540;13.410;2023-01-26T10:16:12;101495.44;;;-0.93;100.00
52625;BME280;38519;52.540;13.410;2023-01-26T10:21:05;101493.13;;;-1.17;100.00
52625;BME280;38519;52.540;13.410;2023-01-26T10:23:32;101492.56;;;-1.01;100.00
52625;BME280;38519;52.540;13.410;2023-01-26T10:26:21;101489.75;;;-0.90;100.00
52625;BME280;38519;52.540;13.410;2023-01-26T10:28:48;101492.88;;;-0.93;100.00
52625;BME280;38519;52.540;13.410;2023-01-26T10:31:15;101482.25;;;-0.88;100.00
52625;BME280;38519;52.540;13.410;2023-01-26T10:34:23;101478.47;;;-0.85;100.00
52625;BME280;38519;52.540;13.410;2023-01-26T10:36:30;101476.75;;;-0.92;100.00
52625;BME280;38519;52.540;13.410;2023-01-26T10:39:02;101469.66;;;-0.87;100.00
52625;BME280;38519;52.540;13.410;2023-01-26T10:41:27;101465.97;;;-0.89;100.00
52625;BME280;38519;52.540;13.410;2023-01-26T10:44:03;101456.00;;;-0.80;100.00
52625;BME280;38519;52.540;13.410;2023-01-26T10:46:42;101456.00;;;-0.80;100.00
52625;BME280;38519;52.540;13.410;2023-01-26T10:51:33;101439.13;;;-0.98;100.00
52625;BME280;38519;52.540;13.410;2023-01-26T10:56:43;101435.00;;;-0.90;100.00
52625;BME280;38519;52.540;13.410;2023-01-26T10:59:09;101439.59;;;-1.08;100.00
52625;BME280;38519;52.540;13.410;2023-01-26T11:01:50;101435.56;;;-0.93;100.00
52625;BME280;38519;52.540;13.410;2023-01-26T11:04:16;101435.91;;;-0.90;100.00
52625;BME280;38519;52.540;13.410;2023-01-26T11:06:41;101434.81;;;-1.12;100.00
52625;BME280;38519;52.540;13.410;2023-01-26T11:09:10;101440.28;;;-0.96;100.00
52625;BME280;38519;52.540;13.410;2023-01-26T11:11:36;101448.88;;;-0.96;100.00
52625;BME280;38519;52.540;13.410;2023-01-26T11:14:19;101442.63;;;-0.98;100.00
52625;BME280;38519;52.540;13.410;2023-01-26T11:17:08;101437.13;;;-1.01;100.00
52625;BME280;38519;52.540;13.410;2023-01-26T11:22:07;101436.31;;;-0.87;100.00
52625;BME280;38519;52.540;13.410;2023-01-26T11:24:41;101430.06;;;-0.89;100.00
52625;BME280;38519;52.540;13.410;2023-01-26T11:29:40;101434.38;;;-0.62;100.00
52625;BME280;38519;52.540;13.410;2023-01-26T11:32:19;101430.41;;;-0.53;100.00
52625;BME280;38519;52.540;13.410;2023-01-26T11:42:50;101434.13;;;-0.44;100.00
52625;BME280;38519;52.540;13.410;2023-01-26T11:50:24;101415.66;;;-0.61;100.00
52625;BME280;38519;52.540;13.410;2023-01-26T11:53:13;101411.47;;;-0.61;100.00
52625;BME280;38519;52.540;13.410;2023-01-26T12:00:47;101403.59;;;-0.62;100.00
52625;BME280;38519;52.540;13.410;2023-01-26T12:03:24;101403.63;;;-0.55;100.00
52625;BME280;38519;52.540;13.410;2023-01-26T12:05:56;101397.81;;;-0.47;100.00
52625;BME280;38519;52.540;13.410;2023-01-26T12:11:16;101395.66;;;-0.44;100.00
52625;BME280;38519;52.540;13.410;2023-01-26T12:16:20;101388.41;;;-0.61;100.00
52625;BME280;38519;52.540;13.410;2023-01-26T12:19:35;101385.56;;;-0.69;100.00
52625;BME280;38519;52.540;13.410;2023-01-26T12:21:33;101377.16;;;-0.68;100.00
52625;BME280;38519;52.540;13.410;2023-01-26T12:24:00;101366.63;;;-0.77;100.00
52625;BME280;38519;52.540;13.410;2023-01-26T12:26:27;101364.56;;;-0.60;100.00
52625;BME280;38519;52.540;13.410;2023-01-26T12:33:54;101360.88;;;-0.42;100.00
52625;BME280;38519;52.540;13.410;2023-01-26T12:46:30;101339.56;;;-0.48;100.00
52625;BME280;38519;52.540;13.410;2023-01-26T12:49:01;101347.25;;;-0.48;100.00
52625;BME280;38519;52.540;13.410;2023-01-26T12:51:33;101345.78;;;-0.73;100.00
52625;BME280;38519;52.540;13.410;2023-01-26T12:56:38;101346.41;;;-0.61;100.00
52625;BME280;38519;52.540;13.410;2023-01-26T13:02:00;101347.25;;;-0.48;100.00
52625;BME280;38519;52.540;13.410;2023-01-26T13:04:33;101346.72;;;-0.45;100.00
52625;BME280;38519;52.540;13.410;2023-01-26T13:07:02;101350.97;;;-0.39;100.00
52625;BME280;38519;52.540;13.410;2023-01-26T13:09:28;101352.91;;;-0.50;100.00
52625;BME280;38519;52.540;13.410;2023-01-26T13:11:54;101355.00;;;-0.41;100.00
52625;BME280;38519;52.540;13.410;2023-01-26T13:16:52;101369.66;;;-0.40;100.00
52625;BME280;38519;52.540;13.410;2023-01-26T13:22:01;101366.84;;;-0.48;100.00
52625;BME280;38519;52.540;13.410;2023-01-26T13:26:52;101369.47;;;-0.41;100.00
52625;BME280;38519;52.540;13.410;2023-01-26T13:31:44;101375.09;;;-0.51;100.00
52625;BME280;38519;52.540;13.410;2023-01-26T13:34:09;101371.41;;;-0.53;100.00
52625;BME280;38519;52.540;13.410;2023-01-26T13:36:38;101378.03;;;-0.48;100.00
52625;BME280;38519;52.540;13.410;2023-01-26T13:39:10;101373.22;;;-0.52;100.00
52625;BME280;38519;52.540;13.410;2023-01-26T13:41:42;101376.44;;;-0.67;100.00
52625;BME280;38519;52.540;13.410;2023-01-26T13:44:25;101380.22;;;-0.71;100.00
52625;BME280;38519;52.540;13.410;2023-01-26T13:46:55;101388.78;;;-0.58;100.00
52625;BME280;38519;52.540;13.410;2023-01-26T13:49:41;101389.69;;;-0.57;100.00
52625;BME280;38519;52.540;13.410;2023-01-26T13:54:40;101381.16;;;-0.70;100.00
52625;BME280;38519;52.540;13.410;2023-01-26T13:57:05;101384.50;;;-0.64;100.00
52625;BME280;38519;52.540;13.410;2023-01-26T13:59:31;101382.94;;;-0.77;100.00
52625;BME280;38519;52.540;13.410;2023-01-26T14:01:59;101383.03;;;-0.89;100.00